createdAt,value
2022-12-11T00:01:16.145Z,14.13
2022-12-11T00:03:47.374Z,12.93
2022-12-11T00:06:20.547Z,12.90
2022-12-11T00:08:50.922Z,13.98
2022-12-11T00:11:18.538Z,13.18
2022-12-11T00:13:46.125Z,14.18
2022-12-11T00:16:13.817Z,13.45
2022-12-11T00:18:41.485Z,13.50
2022-12-11T00:21:14.328Z,13.85
2022-12-11T00:23:42.272Z,13.73
2022-12-11T00:26:15.468Z,13.40
2022-12-11T00:28:44.497Z,12.85
2022-12-11T00:31:16.601Z,13.02
2022-12-11T00:33:45.309Z,13.23
2022-12-11T00:36:14.900Z,13.68
2022-12-11T00:38:43.085Z,14.05
2022-12-11T00:41:15.291Z,13.90
2022-12-11T00:43:43.312Z,14.13
2022-12-11T00:48:39.298Z,12.02
2022-12-11T00:51:07.349Z,12.77
2022-12-11T00:56:02.166Z,12.30
2022-12-11T00:58:29.795Z,13.32
2022-12-11T01:01:06.154Z,12.27
2022-12-11T01:03:33.769Z,12.25
2022-12-11T01:06:01.336Z,12.07
2022-12-11T01:08:31.683Z,11.90
2022-12-11T01:11:06.307Z,12.13
2022-12-11T01:13:34.315Z,11.23
2022-12-11T01:18:33.507Z,9.82
2022-12-11T01:21:06.302Z,10.63
2022-12-11T01:23:33.841Z,10.88
2022-12-11T01:26:12.619Z,10.63
2022-12-11T01:28:41.026Z,10.98
2022-12-11T01:31:14.637Z,11.30
2022-12-11T01:33:42.292Z,11.02
2022-12-11T01:36:16.991Z,11.20
2022-12-11T01:38:45.994Z,12.02
2022-12-11T01:41:13.820Z,14.27
2022-12-11T01:44:07.785Z,13.50
2022-12-11T01:46:36.822Z,16.42
2022-12-11T01:49:09.102Z,16.80
2022-12-11T01:51:47.788Z,16.20
2022-12-11T01:54:19.215Z,14.90
2022-12-11T01:56:48.805Z,14.77
2022-12-11T01:59:20.811Z,14.90
2022-12-11T02:02:08.783Z,14.60
2022-12-11T02:04:39.594Z,15.38
2022-12-11T02:07:07.144Z,13.15
2022-12-11T02:09:36.642Z,14.23
2022-12-11T02:12:16.205Z,12.85
2022-12-11T02:15:14.563Z,11.50
2022-12-11T02:17:48.753Z,11.27
2022-12-11T02:20:23.362Z,10.55
2022-12-11T02:23:11.907Z,10.63
2022-12-11T02:26:06.913Z,10.75
2022-12-11T02:28:53.801Z,10.82
2022-12-11T02:31:27.726Z,11.32
2022-12-11T02:34:26.462Z,10.27
2022-12-11T02:37:00.599Z,11.07
2022-12-11T02:39:29.808Z,11.15
2022-12-11T02:41:58.274Z,10.80
2022-12-11T02:44:29.516Z,11.70
2022-12-11T02:46:59.481Z,10.63
2022-12-11T02:49:29.037Z,11.30
2022-12-11T02:51:58.554Z,11.38
2022-12-11T02:54:31.756Z,10.27
2022-12-11T02:57:05.885Z,11.07
2022-12-11T02:59:36.970Z,11.18
2022-12-11T03:02:05.402Z,10.90
2022-12-11T03:04:35.136Z,11.25
2022-12-11T03:07:14.231Z,11.88
2022-12-11T03:09:44.413Z,11.10
2022-12-11T03:12:17.296Z,11.25
2022-12-11T03:14:45.416Z,10.07
2022-12-11T03:17:18.171Z,9.95
2022-12-11T03:19:48.832Z,9.43
2022-12-11T03:22:22.104Z,10.50
2022-12-11T03:24:55.120Z,10.30
2022-12-11T03:27:37.840Z,9.63
2022-12-11T03:30:19.326Z,10.45
2022-12-11T03:32:55.802Z,9.10
2022-12-11T03:35:29.193Z,10.18
2022-12-11T03:38:01.349Z,10.95
2022-12-11T03:40:33.279Z,10.05
2022-12-11T03:43:01.094Z,9.70
2022-12-11T03:45:30.416Z,10.55
2022-12-11T03:47:59.884Z,10.75
2022-12-11T03:50:30.722Z,11.10
2022-12-11T03:53:00.568Z,10.77
2022-12-11T03:55:29.421Z,10.27
2022-12-11T03:57:57.310Z,10.45
2022-12-11T04:00:25.076Z,10.25
2022-12-11T04:03:13.628Z,10.05
2022-12-11T04:05:47.054Z,9.20
2022-12-11T04:08:15.596Z,10.30
2022-12-11T04:10:43.781Z,9.75
2022-12-11T04:13:11.677Z,10.75
2022-12-11T04:15:40.142Z,11.20
2022-12-11T04:18:26.870Z,10.65
2022-12-11T04:21:14.068Z,11.35
2022-12-11T04:23:59.959Z,10.60
2022-12-11T04:26:27.766Z,10.60
2022-12-11T04:28:55.303Z,11.68
2022-12-11T04:31:23.390Z,11.20
2022-12-11T04:33:51.185Z,11.40
2022-12-11T04:36:18.796Z,10.73
2022-12-11T04:38:46.357Z,11.65
2022-12-11T04:41:16.064Z,12.07
2022-12-11T04:43:47.008Z,11.50
2022-12-11T04:46:20.760Z,11.50
2022-12-11T04:48:53.834Z,10.73
2022-12-11T04:51:24.506Z,10.88
2022-12-11T04:53:52.179Z,11.65
2022-12-11T04:56:20.294Z,11.55
2022-12-11T04:58:48.366Z,11.68
2022-12-11T05:01:22.073Z,10.70
2022-12-11T05:03:50.188Z,12.05
2022-12-11T05:06:17.852Z,12.10
2022-12-11T05:08:45.823Z,12.80
2022-12-11T05:11:15.286Z,12.32
2022-12-11T05:13:43.720Z,12.63
2022-12-11T05:16:14.305Z,12.35
2022-12-11T05:18:42.104Z,11.35
2022-12-11T05:21:12.543Z,10.88
2022-12-11T05:23:40.943Z,11.18
2022-12-11T05:26:14.055Z,10.20
2022-12-11T05:28:41.936Z,10.32
2022-12-11T05:31:15.711Z,10.68
2022-12-11T05:33:44.585Z,10.27
2022-12-11T05:36:23.872Z,10.77
2022-12-11T05:38:52.991Z,10.23
2022-12-11T05:41:22.963Z,10.65
2022-12-11T05:43:51.225Z,10.13
2022-12-11T05:46:21.414Z,10.80
2022-12-11T05:48:51.892Z,9.85
2022-12-11T05:51:19.959Z,10.38
2022-12-11T05:56:24.291Z,9.65
2022-12-11T05:58:52.576Z,9.82
2022-12-11T06:02:31.300Z,10.65
2022-12-11T06:05:04.335Z,9.77
2022-12-11T06:07:43.445Z,10.48
2022-12-11T06:10:27.862Z,10.23
2022-12-11T06:13:05.264Z,10.57
2022-12-11T06:15:33.307Z,10.73
2022-12-11T06:18:03.263Z,10.82
2022-12-11T06:20:52.155Z,11.25
2022-12-11T06:23:25.747Z,11.00
2022-12-11T06:25:53.549Z,10.73
2022-12-11T06:28:21.083Z,12.00
2022-12-11T06:30:48.575Z,12.60
2022-12-11T06:33:16.156Z,12.63
2022-12-11T06:35:44.234Z,12.50
2022-12-11T06:40:39.189Z,16.45
2022-12-11T06:43:06.994Z,18.33
2022-12-11T06:45:38.144Z,21.00
2022-12-11T06:48:05.994Z,20.85
2022-12-11T06:53:01.214Z,20.70
2022-12-11T06:55:28.919Z,21.60
2022-12-11T06:57:56.543Z,19.20
2022-12-11T07:00:24.301Z,17.85
2022-12-11T07:02:51.961Z,18.50
2022-12-11T07:05:19.971Z,18.50
2022-12-11T07:10:14.972Z,21.15
2022-12-11T07:12:42.703Z,20.88
2022-12-11T07:15:10.924Z,23.08
2022-12-11T07:17:38.727Z,20.42
2022-12-11T07:20:06.885Z,21.88
2022-12-11T07:22:34.580Z,20.73
2022-12-11T07:25:02.148Z,20.17
2022-12-11T07:27:30.780Z,19.88
2022-12-11T07:29:58.362Z,24.15
2022-12-11T07:32:26.150Z,20.55
2022-12-11T07:34:53.854Z,21.02
2022-12-11T07:37:21.396Z,21.45
2022-12-11T07:39:49.138Z,20.38
2022-12-11T07:42:17.077Z,20.13
2022-12-11T07:47:12.216Z,20.08
2022-12-11T07:49:39.886Z,20.42
2022-12-11T07:52:07.450Z,21.60
2022-12-11T07:54:36.134Z,23.52
2022-12-11T07:57:03.811Z,25.83
2022-12-11T07:59:31.477Z,24.17
2022-12-11T08:02:01.298Z,22.13
2022-12-11T08:04:28.989Z,22.27
2022-12-11T08:06:57.970Z,25.85
2022-12-11T08:09:25.510Z,23.45
2022-12-11T08:11:53.135Z,23.02
2022-12-11T08:14:21.163Z,22.83
2022-12-11T08:16:53.211Z,21.35
2022-12-11T08:19:20.847Z,22.52
2022-12-11T08:21:48.627Z,23.13
2022-12-11T08:24:20.810Z,22.52
2022-12-11T08:26:50.005Z,23.15
2022-12-11T08:29:20.624Z,23.10
2022-12-11T08:31:48.275Z,22.20
2022-12-11T08:34:16.893Z,22.30
2022-12-11T08:36:47.177Z,23.15
2022-12-11T08:39:14.995Z,23.30
2022-12-11T08:41:45.137Z,22.60
2022-12-11T08:44:16.695Z,22.90
2022-12-11T08:46:48.555Z,21.20
2022-12-11T08:49:16.204Z,19.98
2022-12-11T08:51:43.798Z,19.75
2022-12-11T08:54:11.910Z,21.77
2022-12-11T08:56:41.499Z,19.33
2022-12-11T08:59:09.141Z,18.55
2022-12-11T09:01:39.968Z,18.67
2022-12-11T09:04:07.743Z,19.40
2022-12-11T09:06:36.955Z,18.25
2022-12-11T09:09:05.303Z,17.83
2022-12-11T09:11:35.659Z,17.33
2022-12-11T09:14:07.618Z,17.70
2022-12-11T09:16:39.691Z,20.63
2022-12-11T09:19:10.722Z,18.52
2022-12-11T09:21:38.651Z,17.42
2022-12-11T09:24:06.631Z,18.52
2022-12-11T09:29:04.280Z,17.40
2022-12-11T09:31:36.983Z,18.38
2022-12-11T09:34:11.818Z,19.52
2022-12-11T09:36:40.592Z,19.00
2022-12-11T09:39:12.685Z,18.60
2022-12-11T09:41:55.291Z,22.63
2022-12-11T09:44:41.484Z,20.50
2022-12-11T09:47:35.265Z,18.85
2022-12-11T09:50:25.271Z,18.40
2022-12-11T09:52:52.896Z,19.42
2022-12-11T09:55:46.757Z,19.42
2022-12-11T09:58:26.472Z,20.15
2022-12-11T10:01:25.166Z,19.40
2022-12-11T10:03:58.598Z,18.50
2022-12-11T10:06:38.461Z,17.85
2022-12-11T10:09:34.179Z,20.67
2022-12-11T10:12:17.262Z,18.95
2022-12-11T10:14:57.648Z,20.40
2022-12-11T10:17:41.747Z,27.92
2022-12-11T10:20:22.204Z,40.45
2022-12-11T10:22:56.144Z,53.40
2022-12-11T10:25:43.213Z,75.53
2022-12-11T10:28:16.050Z,103.00
2022-12-11T10:31:13.541Z,101.82
2022-12-11T10:36:27.540Z,80.38
2022-12-11T10:38:55.403Z,88.18
2022-12-11T10:41:31.882Z,91.10
2022-12-11T10:44:01.853Z,96.10
2022-12-11T10:46:38.689Z,85.80
2022-12-11T10:49:23.114Z,87.57
2022-12-11T10:51:53.315Z,90.38
2022-12-11T10:54:38.303Z,68.85
2022-12-11T10:57:11.604Z,67.50
2022-12-11T10:59:50.379Z,65.05
2022-12-11T11:02:33.346Z,65.18
2022-12-11T11:05:12.413Z,62.45
2022-12-11T11:07:44.163Z,62.67
2022-12-11T11:10:20.677Z,58.33
2022-12-11T11:12:52.692Z,62.70
2022-12-11T11:15:30.470Z,59.13
2022-12-11T11:18:07.416Z,58.45
2022-12-11T11:20:35.757Z,58.00
2022-12-11T11:23:11.357Z,62.70
2022-12-11T11:25:52.779Z,61.10
2022-12-11T11:28:44.165Z,98.97
2022-12-11T11:31:14.602Z,105.15
2022-12-11T11:34:03.183Z,106.07
2022-12-11T11:36:38.667Z,108.07
2022-12-11T11:39:45.120Z,95.05
2022-12-11T11:42:23.338Z,77.50
2022-12-11T11:45:31.515Z,52.47
2022-12-11T11:48:18.535Z,52.50
2022-12-11T11:50:50.453Z,51.50
2022-12-11T11:53:31.818Z,58.20
2022-12-11T11:56:17.998Z,37.20
2022-12-11T11:58:49.759Z,32.15
2022-12-11T12:01:37.719Z,26.92
2022-12-11T12:04:05.594Z,24.75
2022-12-11T12:10:55.953Z,19.90
2022-12-11T12:13:50.826Z,20.23
2022-12-11T12:16:54.096Z,19.42
2022-12-11T12:19:39.188Z,19.92
2022-12-11T12:22:52.880Z,19.80
2022-12-11T12:25:52.395Z,19.17
2022-12-11T12:28:27.215Z,18.45
2022-12-11T12:31:01.026Z,18.13
2022-12-11T12:33:31.992Z,17.77
2022-12-11T12:37:12.411Z,17.58
2022-12-11T12:40:09.533Z,17.13
2022-12-11T12:43:05.557Z,16.15
2022-12-11T12:46:10.343Z,16.55
2022-12-11T12:48:37.975Z,17.33
2022-12-11T12:51:06.775Z,16.67
2022-12-11T12:53:36.888Z,16.58
2022-12-11T12:56:06.214Z,18.85
2022-12-11T12:58:43.610Z,16.30
2022-12-11T13:01:37.388Z,18.23
2022-12-11T13:04:55.140Z,17.27
2022-12-11T13:07:30.960Z,19.00
2022-12-11T13:10:27.407Z,18.85
2022-12-11T13:12:58.960Z,22.00
2022-12-11T13:15:34.536Z,26.45
2022-12-11T13:18:10.076Z,28.00
2022-12-11T13:20:48.263Z,29.90
2022-12-11T13:23:29.793Z,29.30
2022-12-11T13:26:05.630Z,29.02
2022-12-11T13:28:48.237Z,33.85
2022-12-11T13:31:17.910Z,33.25
2022-12-11T13:33:57.309Z,40.97
2022-12-11T13:36:35.228Z,47.65
2022-12-11T13:39:22.791Z,48.67
2022-12-11T13:42:32.515Z,46.97
2022-12-11T13:45:01.702Z,52.10
2022-12-11T13:47:31.178Z,54.08
2022-12-11T13:50:23.950Z,56.30
2022-12-11T13:53:00.696Z,50.85
2022-12-11T13:55:31.084Z,59.67
2022-12-11T13:57:59.145Z,51.90
2022-12-11T14:03:09.830Z,42.70
2022-12-11T14:05:37.563Z,44.78
2022-12-11T14:08:11.690Z,51.28
2022-12-11T14:10:49.200Z,44.30
2022-12-11T14:13:25.392Z,45.92
2022-12-11T14:15:54.505Z,35.00
2022-12-11T14:18:24.809Z,37.72
2022-12-11T14:20:57.291Z,38.75
2022-12-11T14:23:28.997Z,47.13
2022-12-11T14:25:58.732Z,40.50
2022-12-11T14:28:28.127Z,37.60
2022-12-11T14:30:59.600Z,38.00
2022-12-11T14:33:38.430Z,36.83
2022-12-11T14:36:09.807Z,36.03
2022-12-11T14:39:16.541Z,35.35
2022-12-11T14:42:08.170Z,36.40
2022-12-11T14:44:50.598Z,37.13
2022-12-11T14:47:31.135Z,35.08
2022-12-11T14:50:05.455Z,34.42
2022-12-11T14:52:38.219Z,36.20
2022-12-11T14:55:20.001Z,37.22
2022-12-11T14:57:58.362Z,38.03
2022-12-11T15:00:40.964Z,36.83
2022-12-11T15:03:17.920Z,39.78
2022-12-11T15:06:26.018Z,40.75
2022-12-11T15:08:56.128Z,37.80
2022-12-11T15:11:36.522Z,40.35
2022-12-11T15:14:09.977Z,42.65
2022-12-11T15:16:40.795Z,43.80
2022-12-11T15:19:19.511Z,42.22
2022-12-11T15:21:47.719Z,43.28
2022-12-11T15:24:50.604Z,44.65
2022-12-11T15:27:30.421Z,41.17
2022-12-11T15:29:58.635Z,51.70
2022-12-11T15:32:26.340Z,46.53
2022-12-11T15:34:59.638Z,47.28
2022-12-11T15:37:52.151Z,47.95
2022-12-11T15:40:31.342Z,46.60
2022-12-11T15:43:02.250Z,45.47
2022-12-11T15:45:31.138Z,45.72
2022-12-11T15:48:02.991Z,45.08
2022-12-11T15:50:33.402Z,47.75
2022-12-11T15:53:01.050Z,43.67
2022-12-11T15:55:45.532Z,54.25
2022-12-11T15:58:21.095Z,51.42
2022-12-11T16:00:48.908Z,49.53
2022-12-11T16:03:28.774Z,53.35
2022-12-11T16:05:59.631Z,49.33
2022-12-11T16:08:27.494Z,51.47
2022-12-11T16:10:58.322Z,59.22
2022-12-11T16:13:36.915Z,60.03
2022-12-11T16:16:07.028Z,73.05
2022-12-11T16:18:34.672Z,73.05
2022-12-11T16:21:05.371Z,81.97
2022-12-11T16:23:33.048Z,82.25
2022-12-11T16:26:07.078Z,69.50
2022-12-11T16:28:38.071Z,71.68
2022-12-11T16:31:15.076Z,77.88
2022-12-11T16:33:43.623Z,80.53
2022-12-11T16:36:21.618Z,75.22
2022-12-11T16:38:54.231Z,72.85
2022-12-11T16:41:23.152Z,74.88
2022-12-11T16:43:51.302Z,71.97
2022-12-11T16:46:23.448Z,76.30
2022-12-11T16:48:51.115Z,77.60
2022-12-11T16:51:18.999Z,85.47
2022-12-11T16:53:49.582Z,84.05
2022-12-11T16:56:17.622Z,76.00
2022-12-11T17:01:17.449Z,64.10
2022-12-11T17:03:45.330Z,72.70
2022-12-11T17:06:19.416Z,69.45
2022-12-11T17:08:48.839Z,60.33
2022-12-11T17:11:22.817Z,69.50
2022-12-11T17:14:02.661Z,50.80
2022-12-11T17:16:41.525Z,55.47
2022-12-11T17:19:10.277Z,49.38
2022-12-11T17:21:38.029Z,55.65
2022-12-11T17:24:06.416Z,56.72
2022-12-11T17:26:54.953Z,59.53
2022-12-11T17:29:23.367Z,57.92
2022-12-11T17:31:51.706Z,52.25
2022-12-11T17:34:19.386Z,50.33
2022-12-11T17:39:14.847Z,62.10
2022-12-11T17:41:42.374Z,65.40
2022-12-11T17:44:10.124Z,55.97
2022-12-11T17:46:37.716Z,56.65
2022-12-11T17:49:05.790Z,63.75
2022-12-11T17:51:33.423Z,57.60
2022-12-11T17:54:01.020Z,54.83
2022-12-11T17:56:28.557Z,62.65
2022-12-11T17:58:57.883Z,56.38
2022-12-11T18:01:28.490Z,56.00
2022-12-11T18:03:56.846Z,57.55
2022-12-11T18:06:24.466Z,58.15
2022-12-11T18:08:52.051Z,57.92
2022-12-11T18:11:21.806Z,56.83
2022-12-11T18:13:50.744Z,55.35
2022-12-11T18:16:20.986Z,58.08
2022-12-11T18:18:52.127Z,58.72
2022-12-11T18:21:28.253Z,58.50
2022-12-11T18:23:55.996Z,60.05
2022-12-11T18:26:27.315Z,60.42
2022-12-11T18:28:55.046Z,57.72
2022-12-11T18:31:23.457Z,67.20
2022-12-11T18:33:51.339Z,57.75
2022-12-11T18:36:20.561Z,61.78
2022-12-11T18:38:49.008Z,58.58
2022-12-11T18:41:19.113Z,58.85
2022-12-11T18:43:48.735Z,56.78
2022-12-11T18:46:20.946Z,57.00
2022-12-11T18:48:51.424Z,57.33
2022-12-11T18:51:23.693Z,57.78
2022-12-11T18:53:54.264Z,60.97
2022-12-11T18:56:22.720Z,58.08
2022-12-11T18:58:59.965Z,60.15
2022-12-11T19:01:29.963Z,57.95
2022-12-11T19:04:05.575Z,67.47
2022-12-11T19:06:36.784Z,57.38
2022-12-11T19:09:07.248Z,61.33
2022-12-11T19:11:38.566Z,58.03
2022-12-11T19:14:07.165Z,58.00
2022-12-11T19:16:37.631Z,56.63
2022-12-11T19:19:11.870Z,57.72
2022-12-11T19:21:39.938Z,56.55
2022-12-11T19:26:36.280Z,54.40
2022-12-11T19:31:32.393Z,42.85
2022-12-11T19:34:01.675Z,48.28
2022-12-11T19:36:31.632Z,51.70
2022-12-11T19:39:01.735Z,51.58
2022-12-11T19:41:32.069Z,49.03
2022-12-11T19:44:00.084Z,47.63
2022-12-11T19:51:38.346Z,42.72
2022-12-11T19:54:07.734Z,46.58
2022-12-11T19:56:35.543Z,37.92
2022-12-11T19:59:06.295Z,36.55
2022-12-11T20:01:36.087Z,39.55
2022-12-11T20:04:11.669Z,36.22
2022-12-11T20:06:41.671Z,37.05
2022-12-11T20:09:11.992Z,38.55
2022-12-11T20:11:41.877Z,38.05
2022-12-11T20:14:15.323Z,36.60
2022-12-11T20:19:30.346Z,34.13
2022-12-11T20:22:00.709Z,35.70
2022-12-11T20:24:29.230Z,34.33
2022-12-11T20:26:57.245Z,36.63
2022-12-11T20:31:53.565Z,31.40
2022-12-11T20:34:21.137Z,34.53
2022-12-11T20:36:48.954Z,34.80
2022-12-11T20:39:16.455Z,33.88
2022-12-11T20:41:44.030Z,36.63
2022-12-11T20:44:11.560Z,39.72
2022-12-11T20:46:39.152Z,37.53
2022-12-11T20:49:12.692Z,32.75
2022-12-11T20:51:40.586Z,32.75
2022-12-11T20:54:08.411Z,33.17
2022-12-11T20:56:36.181Z,32.50
2022-12-11T20:59:04.125Z,30.05
2022-12-11T21:01:33.034Z,31.05
2022-12-11T21:04:01.350Z,30.02
2022-12-11T21:06:34.558Z,31.23
2022-12-11T21:09:06.465Z,28.63
2022-12-11T21:11:34.421Z,31.00
2022-12-11T21:14:02.420Z,29.33
2022-12-11T21:16:30.200Z,31.25
2022-12-11T21:18:58.854Z,30.40
2022-12-11T21:21:26.756Z,33.65
2022-12-11T21:23:54.665Z,28.48
2022-12-11T21:28:49.605Z,28.73
2022-12-11T21:31:19.122Z,36.85
2022-12-11T21:33:46.843Z,41.95
2022-12-11T21:36:20.412Z,31.70
2022-12-11T21:38:48.750Z,25.77
2022-12-11T21:41:19.332Z,26.98
2022-12-11T21:46:36.506Z,27.45
2022-12-11T21:49:04.249Z,28.30
2022-12-11T21:51:37.179Z,27.98
2022-12-11T21:54:10.321Z,29.27
2022-12-11T21:56:37.841Z,29.70
2022-12-11T21:59:06.245Z,33.55
2022-12-11T22:01:40.829Z,29.75
2022-12-11T22:04:09.759Z,30.35
2022-12-11T22:06:38.122Z,28.45
2022-12-11T22:09:06.350Z,30.63
2022-12-11T22:11:34.876Z,28.42
2022-12-11T22:14:03.520Z,29.00
2022-12-11T22:16:31.348Z,29.48
2022-12-11T22:19:01.491Z,29.05
2022-12-11T22:21:29.195Z,29.58
2022-12-11T22:23:56.930Z,29.92
2022-12-11T22:26:26.904Z,29.67
2022-12-11T22:28:55.328Z,28.60
2022-12-11T22:31:24.493Z,27.67
2022-12-11T22:33:53.918Z,28.98
2022-12-11T22:36:23.500Z,29.60
2022-12-11T22:38:51.342Z,27.77
2022-12-11T22:41:26.727Z,28.58
2022-12-11T22:43:55.329Z,28.00
2022-12-11T22:46:25.395Z,28.85
2022-12-11T22:48:53.585Z,27.50
2022-12-11T22:51:21.679Z,28.40
2022-12-11T22:53:49.428Z,26.45
2022-12-11T22:56:17.246Z,25.85
2022-12-11T22:58:44.729Z,25.48
2022-12-11T23:01:15.979Z,24.25
2022-12-11T23:03:43.665Z,23.70
2022-12-11T23:06:13.964Z,23.85
2022-12-11T23:08:42.746Z,23.27
2022-12-11T23:11:18.325Z,25.55
2022-12-11T23:13:45.811Z,23.40
2022-12-11T23:16:15.031Z,22.88
2022-12-11T23:18:42.664Z,21.00
2022-12-11T23:21:10.983Z,21.17
2022-12-11T23:23:39.307Z,20.60
2022-12-11T23:26:10.270Z,20.25
2022-12-11T23:28:38.255Z,20.85
2022-12-11T23:33:36.518Z,19.63
2022-12-11T23:36:05.125Z,19.65
2022-12-11T23:38:32.884Z,19.80
2022-12-11T23:43:28.552Z,19.25
2022-12-11T23:45:57.643Z,20.55
2022-12-11T23:48:25.255Z,20.20
2022-12-11T23:50:57.535Z,20.98
2022-12-11T23:53:25.020Z,20.92
2022-12-11T23:55:52.473Z,21.50
2022-12-11T23:58:20.009Z,20.92
